sensor_id;sensor_type;location;lat;lon;timestamp;P1;durP1;ratioP1;P2;durP2;ratioP2
58661;SDS011;44432;49.786;22.760;2022-10-31T00:02:10;17.60;;;10.90;;
58661;SDS011;44432;49.786;22.760;2022-10-31T00:04:41;16.90;;;9.80;;
58661;SDS011;44432;49.786;22.760;2022-10-31T00:07:11;20.60;;;12.80;;
58661;SDS011;44432;49.786;22.760;2022-10-31T00:09:42;20.90;;;13.20;;
58661;SDS011;44432;49.786;22.760;2022-10-31T00:12:12;23.20;;;12.90;;
58661;SDS011;44432;49.786;22.760;2022-10-31T00:14:43;17.40;;;11.70;;
58661;SDS011;44432;49.786;22.760;2022-10-31T00:17:14;18.70;;;12.00;;
58661;SDS011;44432;49.786;22.760;2022-10-31T00:19:44;35.90;;;21.00;;
58661;SDS011;44432;49.786;22.760;2022-10-31T00:22:15;29.80;;;16.20;;
58661;SDS011;44432;49.786;22.760;2022-10-31T00:24:45;53.50;;;27.90;;
58661;SDS011;44432;49.786;22.760;2022-10-31T00:27:16;44.00;;;23.90;;
58661;SDS011;44432;49.786;22.760;2022-10-31T00:29:46;53.10;;;27.90;;
58661;SDS011;44432;49.786;22.760;2022-10-31T00:32:17;30.80;;;16.60;;
58661;SDS011;44432;49.786;22.760;2022-10-31T00:34:47;51.10;;;27.20;;
58661;SDS011;44432;49.786;22.760;2022-10-31T00:37:18;58.80;;;26.60;;
58661;SDS011;44432;49.786;22.760;2022-10-31T00:39:48;22.00;;;13.10;;
58661;SDS011;44432;49.786;22.760;2022-10-31T00:42:19;20.40;;;13.70;;
58661;SDS011;44432;49.786;22.760;2022-10-31T00:44:49;20.30;;;12.50;;
58661;SDS011;44432;49.786;22.760;2022-10-31T00:47:20;16.10;;;9.80;;
58661;SDS011;44432;49.786;22.760;2022-10-31T00:49:50;15.50;;;11.90;;
58661;SDS011;44432;49.786;22.760;2022-10-31T00:52:21;16.80;;;11.10;;
58661;SDS011;44432;49.786;22.760;2022-10-31T00:54:51;15.90;;;10.20;;
58661;SDS011;44432;49.786;22.760;2022-10-31T00:57:22;16.70;;;9.40;;
58661;SDS011;44432;49.786;22.760;2022-10-31T00:59:52;15.60;;;9.40;;
58661;SDS011;44432;49.786;22.760;2022-10-31T01:02:23;17.30;;;10.30;;
58661;SDS011;44432;49.786;22.760;2022-10-31T01:04:53;14.90;;;8.90;;
58661;SDS011;44432;49.786;22.760;2022-10-31T01:07:24;19.30;;;10.20;;
58661;SDS011;44432;49.786;22.760;2022-10-31T01:09:54;15.80;;;9.70;;
58661;SDS011;44432;49.786;22.760;2022-10-31T01:12:25;16.60;;;10.50;;
58661;SDS011;44432;49.786;22.760;2022-10-31T01:14:55;17.90;;;9.70;;
58661;SDS011;44432;49.786;22.760;2022-10-31T01:17:26;13.70;;;9.70;;
58661;SDS011;44432;49.786;22.760;2022-10-31T01:19:56;16.70;;;10.60;;
58661;SDS011;44432;49.786;22.760;2022-10-31T01:22:27;18.00;;;11.30;;
58661;SDS011;44432;49.786;22.760;2022-10-31T01:24:57;19.00;;;10.00;;
58661;SDS011;44432;49.786;22.760;2022-10-31T01:27:28;15.10;;;10.50;;
58661;SDS011;44432;49.786;22.760;2022-10-31T01:29:59;13.90;;;10.10;;
58661;SDS011;44432;49.786;22.760;2022-10-31T01:32:29;15.30;;;9.80;;
58661;SDS011;44432;49.786;22.760;2022-10-31T01:35:00;15.40;;;9.60;;
58661;SDS011;44432;49.786;22.760;2022-10-31T01:37:31;15.40;;;9.60;;
58661;SDS011;44432;49.786;22.760;2022-10-31T01:40:02;18.10;;;10.20;;
58661;SDS011;44432;49.786;22.760;2022-10-31T01:42:33;16.20;;;10.30;;
58661;SDS011;44432;49.786;22.760;2022-10-31T01:45:05;15.70;;;9.80;;
58661;SDS011;44432;49.786;22.760;2022-10-31T01:47:41;14.30;;;9.20;;
58661;SDS011;44432;49.786;22.760;2022-10-31T01:50:15;15.20;;;9.60;;
58661;SDS011;44432;49.786;22.760;2022-10-31T01:52:54;15.90;;;10.10;;
58661;SDS011;44432;49.786;22.760;2022-10-31T01:55:26;18.80;;;10.30;;
58661;SDS011;44432;49.786;22.760;2022-10-31T01:58:01;14.40;;;9.40;;
58661;SDS011;44432;49.786;22.760;2022-10-31T02:00:36;16.50;;;9.40;;
58661;SDS011;44432;49.786;22.760;2022-10-31T02:03:07;15.70;;;9.20;;
58661;SDS011;44432;49.786;22.760;2022-10-31T02:05:37;25.40;;;10.90;;
58661;SDS011;44432;49.786;22.760;2022-10-31T02:08:11;20.80;;;10.60;;
58661;SDS011;44432;49.786;22.760;2022-10-31T02:10:47;15.20;;;9.60;;
58661;SDS011;44432;49.786;22.760;2022-10-31T02:13:18;14.60;;;9.80;;
58661;SDS011;44432;49.786;22.760;2022-10-31T02:15:51;13.90;;;9.60;;
58661;SDS011;44432;49.786;22.760;2022-10-31T02:18:24;14.90;;;9.90;;
58661;SDS011;44432;49.786;22.760;2022-10-31T02:23:54;16.90;;;9.40;;
58661;SDS011;44432;49.786;22.760;2022-10-31T02:29:47;16.10;;;10.40;;
58661;SDS011;44432;49.786;22.760;2022-10-31T02:32:33;21.10;;;9.80;;
58661;SDS011;44432;49.786;22.760;2022-10-31T02:35:13;16.50;;;9.20;;
58661;SDS011;44432;49.786;22.760;2022-10-31T02:37:54;15.20;;;9.60;;
58661;SDS011;44432;49.786;22.760;2022-10-31T02:40:33;14.30;;;10.40;;
58661;SDS011;44432;49.786;22.760;2022-10-31T02:43:09;16.10;;;10.00;;
58661;SDS011;44432;49.786;22.760;2022-10-31T02:45:48;20.60;;;12.00;;
58661;SDS011;44432;49.786;22.760;2022-10-31T02:48:26;18.60;;;11.50;;
58661;SDS011;44432;49.786;22.760;2022-10-31T02:51:00;18.70;;;11.90;;
58661;SDS011;44432;49.786;22.760;2022-10-31T02:53:33;17.10;;;10.90;;
58661;SDS011;44432;49.786;22.760;2022-10-31T02:56:05;15.90;;;10.00;;
58661;SDS011;44432;49.786;22.760;2022-10-31T02:58:41;18.80;;;10.00;;
58661;SDS011;44432;49.786;22.760;2022-10-31T03:01:26;18.90;;;10.20;;
58661;SDS011;44432;49.786;22.760;2022-10-31T03:07:10;15.90;;;9.70;;
58661;SDS011;44432;49.786;22.760;2022-10-31T03:09:51;17.40;;;10.40;;
58661;SDS011;44432;49.786;22.760;2022-10-31T03:12:33;18.40;;;8.90;;
58661;SDS011;44432;49.786;22.760;2022-10-31T03:15:11;14.10;;;8.60;;
58661;SDS011;44432;49.786;22.760;2022-10-31T03:17:49;19.00;;;10.30;;
58661;SDS011;44432;49.786;22.760;2022-10-31T03:20:26;17.90;;;8.70;;
58661;SDS011;44432;49.786;22.760;2022-10-31T03:23:02;18.30;;;9.30;;
58661;SDS011;44432;49.786;22.760;2022-10-31T03:25:35;13.70;;;8.50;;
58661;SDS011;44432;49.786;22.760;2022-10-31T03:28:08;12.10;;;8.80;;
58661;SDS011;44432;49.786;22.760;2022-10-31T03:30:43;16.80;;;9.20;;
58661;SDS011;44432;49.786;22.760;2022-10-31T03:33:16;17.50;;;8.80;;
58661;SDS011;44432;49.786;22.760;2022-10-31T03:35:50;15.00;;;10.00;;
58661;SDS011;44432;49.786;22.760;2022-10-31T03:38:23;14.80;;;8.90;;
58661;SDS011;44432;49.786;22.760;2022-10-31T03:40:54;15.80;;;9.60;;
58661;SDS011;44432;49.786;22.760;2022-10-31T03:43:30;18.00;;;9.50;;
58661;SDS011;44432;49.786;22.760;2022-10-31T03:46:07;14.10;;;8.90;;
58661;SDS011;44432;49.786;22.760;2022-10-31T03:48:38;15.10;;;8.60;;
58661;SDS011;44432;49.786;22.760;2022-10-31T03:51:10;15.50;;;9.00;;
58661;SDS011;44432;49.786;22.760;2022-10-31T03:53:49;16.00;;;10.00;;
58661;SDS011;44432;49.786;22.760;2022-10-31T03:56:26;15.80;;;9.10;;
58661;SDS011;44432;49.786;22.760;2022-10-31T03:59:03;15.20;;;9.50;;
58661;SDS011;44432;49.786;22.760;2022-10-31T04:01:38;15.80;;;9.30;;
58661;SDS011;44432;49.786;22.760;2022-10-31T04:04:13;19.00;;;9.70;;
58661;SDS011;44432;49.786;22.760;2022-10-31T04:06:44;15.20;;;9.30;;
58661;SDS011;44432;49.786;22.760;2022-10-31T04:09:17;16.80;;;9.80;;
58661;SDS011;44432;49.786;22.760;2022-10-31T04:11:50;16.90;;;10.10;;
58661;SDS011;44432;49.786;22.760;2022-10-31T04:14:23;17.40;;;9.70;;
58661;SDS011;44432;49.786;22.760;2022-10-31T04:16:56;19.60;;;10.50;;
58661;SDS011;44432;49.786;22.760;2022-10-31T04:19:28;14.70;;;9.90;;
58661;SDS011;44432;49.786;22.760;2022-10-31T04:21:58;14.80;;;9.70;;
58661;SDS011;44432;49.786;22.760;2022-10-31T04:24:29;16.00;;;9.70;;
58661;SDS011;44432;49.786;22.760;2022-10-31T04:27:00;15.50;;;9.90;;
58661;SDS011;44432;49.786;22.760;2022-10-31T04:29:30;14.60;;;10.30;;
58661;SDS011;44432;49.786;22.760;2022-10-31T04:32:01;13.90;;;9.60;;
58661;SDS011;44432;49.786;22.760;2022-10-31T04:34:31;18.50;;;9.80;;
58661;SDS011;44432;49.786;22.760;2022-10-31T04:37:02;16.60;;;10.10;;
58661;SDS011;44432;49.786;22.760;2022-10-31T04:39:32;14.30;;;9.50;;
58661;SDS011;44432;49.786;22.760;2022-10-31T04:42:03;19.80;;;9.40;;
58661;SDS011;44432;49.786;22.760;2022-10-31T04:44:33;16.00;;;10.10;;
58661;SDS011;44432;49.786;22.760;2022-10-31T04:47:04;24.80;;;10.60;;
58661;SDS011;44432;49.786;22.760;2022-10-31T04:49:34;14.30;;;8.70;;
58661;SDS011;44432;49.786;22.760;2022-10-31T04:52:05;17.00;;;8.90;;
58661;SDS011;44432;49.786;22.760;2022-10-31T04:54:35;11.30;;;8.10;;
58661;SDS011;44432;49.786;22.760;2022-10-31T04:57:06;12.50;;;8.30;;
58661;SDS011;44432;49.786;22.760;2022-10-31T04:59:37;11.30;;;8.10;;
58661;SDS011;44432;49.786;22.760;2022-10-31T05:02:07;11.90;;;7.90;;
58661;SDS011;44432;49.786;22.760;2022-10-31T05:04:38;10.50;;;7.50;;
58661;SDS011;44432;49.786;22.760;2022-10-31T05:07:08;13.00;;;8.80;;
58661;SDS011;44432;49.786;22.760;2022-10-31T05:09:39;12.10;;;7.30;;
58661;SDS011;44432;49.786;22.760;2022-10-31T05:12:09;15.40;;;8.60;;
58661;SDS011;44432;49.786;22.760;2022-10-31T05:14:40;12.30;;;8.40;;
58661;SDS011;44432;49.786;22.760;2022-10-31T05:17:10;11.20;;;8.30;;
58661;SDS011;44432;49.786;22.760;2022-10-31T05:19:41;11.70;;;8.60;;
58661;SDS011;44432;49.786;22.760;2022-10-31T05:22:11;13.00;;;9.40;;
58661;SDS011;44432;49.786;22.760;2022-10-31T05:24:42;10.30;;;8.00;;
58661;SDS011;44432;49.786;22.760;2022-10-31T05:27:12;13.80;;;9.00;;
58661;SDS011;44432;49.786;22.760;2022-10-31T05:29:43;17.60;;;9.70;;
58661;SDS011;44432;49.786;22.760;2022-10-31T05:32:13;12.80;;;8.30;;
58661;SDS011;44432;49.786;22.760;2022-10-31T05:34:44;18.10;;;9.20;;
58661;SDS011;44432;49.786;22.760;2022-10-31T05:37:14;13.60;;;8.80;;
58661;SDS011;44432;49.786;22.760;2022-10-31T05:39:45;14.00;;;8.70;;
58661;SDS011;44432;49.786;22.760;2022-10-31T05:42:15;14.20;;;9.40;;
58661;SDS011;44432;49.786;22.760;2022-10-31T05:44:46;12.60;;;8.90;;
58661;SDS011;44432;49.786;22.760;2022-10-31T05:47:16;14.70;;;10.40;;
58661;SDS011;44432;49.786;22.760;2022-10-31T05:49:47;15.50;;;9.50;;
58661;SDS011;44432;49.786;22.760;2022-10-31T05:52:17;21.70;;;10.00;;
58661;SDS011;44432;49.786;22.760;2022-10-31T05:54:48;16.00;;;8.80;;
58661;SDS011;44432;49.786;22.760;2022-10-31T05:57:19;36.60;;;8.50;;
58661;SDS011;44432;49.786;22.760;2022-10-31T06:02:58;18.60;;;7.20;;
58661;SDS011;44432;49.786;22.760;2022-10-31T06:05:29;19.30;;;7.40;;
58661;SDS011;44432;49.786;22.760;2022-10-31T06:08:00;20.50;;;9.60;;
58661;SDS011;44432;49.786;22.760;2022-10-31T06:10:31;17.10;;;8.50;;
58661;SDS011;44432;49.786;22.760;2022-10-31T06:13:01;17.60;;;8.00;;
58661;SDS011;44432;49.786;22.760;2022-10-31T06:15:34;16.80;;;8.20;;
58661;SDS011;44432;49.786;22.760;2022-10-31T06:18:04;22.70;;;9.90;;
58661;SDS011;44432;49.786;22.760;2022-10-31T06:20:37;15.20;;;7.70;;
58661;SDS011;44432;49.786;22.760;2022-10-31T06:23:07;14.30;;;7.30;;
58661;SDS011;44432;49.786;22.760;2022-10-31T06:25:38;11.90;;;7.10;;
58661;SDS011;44432;49.786;22.760;2022-10-31T06:28:09;13.70;;;7.20;;
58661;SDS011;44432;49.786;22.760;2022-10-31T06:30:39;10.70;;;7.30;;
58661;SDS011;44432;49.786;22.760;2022-10-31T06:33:10;19.00;;;8.10;;
58661;SDS011;44432;49.786;22.760;2022-10-31T06:35:45;15.90;;;7.20;;
58661;SDS011;44432;49.786;22.760;2022-10-31T06:38:16;12.50;;;7.90;;
58661;SDS011;44432;49.786;22.760;2022-10-31T06:40:46;20.70;;;8.90;;
58661;SDS011;44432;49.786;22.760;2022-10-31T06:43:17;26.00;;;8.70;;
58661;SDS011;44432;49.786;22.760;2022-10-31T06:45:47;13.10;;;9.10;;
58661;SDS011;44432;49.786;22.760;2022-10-31T06:48:18;19.80;;;11.70;;
58661;SDS011;44432;49.786;22.760;2022-10-31T06:50:49;11.90;;;8.30;;
58661;SDS011;44432;49.786;22.760;2022-10-31T06:53:19;11.40;;;7.50;;
58661;SDS011;44432;49.786;22.760;2022-10-31T06:55:50;12.30;;;7.70;;
58661;SDS011;44432;49.786;22.760;2022-10-31T06:58:20;9.60;;;8.10;;
58661;SDS011;44432;49.786;22.760;2022-10-31T07:00:51;11.70;;;8.10;;
58661;SDS011;44432;49.786;22.760;2022-10-31T07:03:21;11.70;;;7.60;;
58661;SDS011;44432;49.786;22.760;2022-10-31T07:05:51;11.20;;;8.00;;
58661;SDS011;44432;49.786;22.760;2022-10-31T07:08:23;11.90;;;7.90;;
58661;SDS011;44432;49.786;22.760;2022-10-31T07:10:54;12.50;;;8.60;;
58661;SDS011;44432;49.786;22.760;2022-10-31T07:13:25;14.80;;;9.00;;
58661;SDS011;44432;49.786;22.760;2022-10-31T07:15:59;13.40;;;9.00;;
58661;SDS011;44432;49.786;22.760;2022-10-31T07:18:31;13.80;;;9.10;;
58661;SDS011;44432;49.786;22.760;2022-10-31T07:21:02;10.90;;;8.50;;
58661;SDS011;44432;49.786;22.760;2022-10-31T07:23:33;12.50;;;8.70;;
58661;SDS011;44432;49.786;22.760;2022-10-31T07:26:04;9.60;;;7.20;;
58661;SDS011;44432;49.786;22.760;2022-10-31T07:28:34;17.70;;;8.60;;
58661;SDS011;44432;49.786;22.760;2022-10-31T07:31:05;14.70;;;11.10;;
58661;SDS011;44432;49.786;22.760;2022-10-31T07:33:35;20.60;;;13.10;;
58661;SDS011;44432;49.786;22.760;2022-10-31T07:36:06;11.70;;;7.90;;
58661;SDS011;44432;49.786;22.760;2022-10-31T07:38:37;9.40;;;7.30;;
58661;SDS011;44432;49.786;22.760;2022-10-31T07:41:07;9.90;;;7.20;;
58661;SDS011;44432;49.786;22.760;2022-10-31T07:43:38;11.30;;;6.80;;
58661;SDS011;44432;49.786;22.760;2022-10-31T07:46:08;10.30;;;7.30;;
58661;SDS011;44432;49.786;22.760;2022-10-31T07:48:39;11.10;;;6.80;;
58661;SDS011;44432;49.786;22.760;2022-10-31T07:51:10;8.80;;;6.50;;
58661;SDS011;44432;49.786;22.760;2022-10-31T07:53:40;11.10;;;6.50;;
58661;SDS011;44432;49.786;22.760;2022-10-31T07:56:11;10.20;;;6.70;;
58661;SDS011;44432;49.786;22.760;2022-10-31T07:58:42;8.50;;;6.50;;
58661;SDS011;44432;49.786;22.760;2022-10-31T08:01:12;12.20;;;6.60;;
58661;SDS011;44432;49.786;22.760;2022-10-31T08:03:43;9.30;;;6.20;;
58661;SDS011;44432;49.786;22.760;2022-10-31T08:06:13;10.10;;;6.40;;
58661;SDS011;44432;49.786;22.760;2022-10-31T08:08:44;11.80;;;7.60;;
58661;SDS011;44432;49.786;22.760;2022-10-31T08:11:14;10.70;;;6.30;;
58661;SDS011;44432;49.786;22.760;2022-10-31T08:13:46;11.80;;;6.90;;
58661;SDS011;44432;49.786;22.760;2022-10-31T08:16:16;8.30;;;6.20;;
58661;SDS011;44432;49.786;22.760;2022-10-31T08:18:47;10.80;;;7.00;;
58661;SDS011;44432;49.786;22.760;2022-10-31T08:21:18;12.60;;;6.90;;
58661;SDS011;44432;49.786;22.760;2022-10-31T08:23:48;9.20;;;5.60;;
58661;SDS011;44432;49.786;22.760;2022-10-31T08:26:18;9.50;;;5.90;;
58661;SDS011;44432;49.786;22.760;2022-10-31T08:28:49;11.90;;;6.90;;
58661;SDS011;44432;49.786;22.760;2022-10-31T08:31:22;9.20;;;5.30;;
58661;SDS011;44432;49.786;22.760;2022-10-31T08:33:54;9.20;;;5.70;;
58661;SDS011;44432;49.786;22.760;2022-10-31T08:36:24;8.40;;;5.20;;
58661;SDS011;44432;49.786;22.760;2022-10-31T08:38:55;9.40;;;5.40;;
58661;SDS011;44432;49.786;22.760;2022-10-31T08:41:26;9.90;;;6.00;;
58661;SDS011;44432;49.786;22.760;2022-10-31T08:43:57;10.30;;;5.30;;
58661;SDS011;44432;49.786;22.760;2022-10-31T08:46:27;7.30;;;5.10;;
58661;SDS011;44432;49.786;22.760;2022-10-31T08:48:59;8.20;;;5.20;;
58661;SDS011;44432;49.786;22.760;2022-10-31T08:51:29;10.00;;;5.50;;
58661;SDS011;44432;49.786;22.760;2022-10-31T08:54:00;8.80;;;4.80;;
58661;SDS011;44432;49.786;22.760;2022-10-31T08:56:31;9.60;;;5.00;;
58661;SDS011;44432;49.786;22.760;2022-10-31T08:59:01;8.00;;;4.40;;
58661;SDS011;44432;49.786;22.760;2022-10-31T09:01:32;7.90;;;4.50;;
58661;SDS011;44432;49.786;22.760;2022-10-31T09:04:02;14.20;;;5.00;;
58661;SDS011;44432;49.786;22.760;2022-10-31T09:06:33;7.80;;;4.10;;
58661;SDS011;44432;49.786;22.760;2022-10-31T09:09:04;7.50;;;5.20;;
58661;SDS011;44432;49.786;22.760;2022-10-31T09:11:35;10.10;;;5.90;;
58661;SDS011;44432;49.786;22.760;2022-10-31T09:14:05;9.90;;;5.60;;
58661;SDS011;44432;49.786;22.760;2022-10-31T09:16:36;12.30;;;6.40;;
58661;SDS011;44432;49.786;22.760;2022-10-31T09:19:06;16.10;;;9.80;;
58661;SDS011;44432;49.786;22.760;2022-10-31T09:27:49;9.30;;;4.20;;
58661;SDS011;44432;49.786;22.760;2022-10-31T09:30:20;11.30;;;4.00;;
58661;SDS011;44432;49.786;22.760;2022-10-31T09:32:55;8.70;;;4.30;;
58661;SDS011;44432;49.786;22.760;2022-10-31T09:35:27;9.30;;;4.50;;
58661;SDS011;44432;49.786;22.760;2022-10-31T09:37:58;10.10;;;3.80;;
58661;SDS011;44432;49.786;22.760;2022-10-31T09:40:32;7.90;;;4.90;;
58661;SDS011;44432;49.786;22.760;2022-10-31T09:43:07;7.20;;;3.90;;
58661;SDS011;44432;49.786;22.760;2022-10-31T09:45:45;6.80;;;3.90;;
58661;SDS011;44432;49.786;22.760;2022-10-31T09:48:30;10.90;;;4.30;;
58661;SDS011;44432;49.786;22.760;2022-10-31T09:51:07;9.70;;;4.80;;
58661;SDS011;44432;49.786;22.760;2022-10-31T09:53:42;9.30;;;3.50;;
58661;SDS011;44432;49.786;22.760;2022-10-31T09:56:18;11.20;;;3.40;;
58661;SDS011;44432;49.786;22.760;2022-10-31T09:58:51;6.90;;;3.60;;
58661;SDS011;44432;49.786;22.760;2022-10-31T10:01:31;8.30;;;3.40;;
58661;SDS011;44432;49.786;22.760;2022-10-31T10:04:13;9.90;;;3.90;;
58661;SDS011;44432;49.786;22.760;2022-10-31T10:06:56;11.10;;;3.90;;
58661;SDS011;44432;49.786;22.760;2022-10-31T10:09:28;12.90;;;6.00;;
58661;SDS011;44432;49.786;22.760;2022-10-31T10:12:01;13.90;;;4.60;;
58661;SDS011;44432;49.786;22.760;2022-10-31T10:14:42;6.30;;;3.40;;
58661;SDS011;44432;49.786;22.760;2022-10-31T10:17:26;7.50;;;3.10;;
58661;SDS011;44432;49.786;22.760;2022-10-31T10:23:11;11.10;;;4.10;;
58661;SDS011;44432;49.786;22.760;2022-10-31T10:25:53;35.30;;;16.60;;
58661;SDS011;44432;49.786;22.760;2022-10-31T10:28:31;10.00;;;4.70;;
58661;SDS011;44432;49.786;22.760;2022-10-31T10:31:08;11.30;;;4.40;;
58661;SDS011;44432;49.786;22.760;2022-10-31T10:33:42;16.60;;;3.70;;
58661;SDS011;44432;49.786;22.760;2022-10-31T10:36:27;8.90;;;4.20;;
58661;SDS011;44432;49.786;22.760;2022-10-31T10:39:04;6.80;;;3.80;;
58661;SDS011;44432;49.786;22.760;2022-10-31T10:41:44;9.80;;;4.90;;
58661;SDS011;44432;49.786;22.760;2022-10-31T10:44:30;10.00;;;4.70;;
58661;SDS011;44432;49.786;22.760;2022-10-31T10:47:19;9.60;;;4.30;;
58661;SDS011;44432;49.786;22.760;2022-10-31T10:50:10;10.60;;;4.50;;
58661;SDS011;44432;49.786;22.760;2022-10-31T10:52:48;13.50;;;4.70;;
58661;SDS011;44432;49.786;22.760;2022-10-31T10:55:29;10.70;;;3.80;;
58661;SDS011;44432;49.786;22.760;2022-10-31T10:58:07;11.40;;;5.30;;
58661;SDS011;44432;49.786;22.760;2022-10-31T11:00:40;9.90;;;4.10;;
58661;SDS011;44432;49.786;22.760;2022-10-31T11:03:13;13.60;;;4.80;;
58661;SDS011;44432;49.786;22.760;2022-10-31T11:05:47;6.90;;;3.80;;
58661;SDS011;44432;49.786;22.760;2022-10-31T11:08:25;9.00;;;3.90;;
58661;SDS011;44432;49.786;22.760;2022-10-31T11:10:59;13.60;;;6.20;;
58661;SDS011;44432;49.786;22.760;2022-10-31T11:13:32;15.90;;;5.50;;
58661;SDS011;44432;49.786;22.760;2022-10-31T11:16:04;9.60;;;4.10;;
58661;SDS011;44432;49.786;22.760;2022-10-31T11:18:39;9.30;;;3.70;;
58661;SDS011;44432;49.786;22.760;2022-10-31T11:21:20;9.10;;;3.70;;
58661;SDS011;44432;49.786;22.760;2022-10-31T11:24:02;9.10;;;3.50;;
58661;SDS011;44432;49.786;22.760;2022-10-31T11:26:42;8.80;;;3.80;;
58661;SDS011;44432;49.786;22.760;2022-10-31T11:29:15;12.00;;;3.80;;
58661;SDS011;44432;49.786;22.760;2022-10-31T11:31:50;10.90;;;3.90;;
58661;SDS011;44432;49.786;22.760;2022-10-31T11:34:27;9.80;;;4.50;;
58661;SDS011;44432;49.786;22.760;2022-10-31T11:37:02;11.10;;;4.00;;
58661;SDS011;44432;49.786;22.760;2022-10-31T11:39:40;13.00;;;4.00;;
58661;SDS011;44432;49.786;22.760;2022-10-31T11:42:13;10.50;;;5.10;;
58661;SDS011;44432;49.786;22.760;2022-10-31T11:44:43;10.70;;;4.60;;
58661;SDS011;44432;49.786;22.760;2022-10-31T11:47:15;10.00;;;4.60;;
58661;SDS011;44432;49.786;22.760;2022-10-31T11:49:55;12.60;;;3.80;;
58661;SDS011;44432;49.786;22.760;2022-10-31T11:52:30;11.10;;;4.10;;
58661;SDS011;44432;49.786;22.760;2022-10-31T11:55:02;11.60;;;3.60;;
58661;SDS011;44432;49.786;22.760;2022-10-31T11:57:46;10.60;;;3.40;;
58661;SDS011;44432;49.786;22.760;2022-10-31T12:00:22;14.20;;;5.10;;
58661;SDS011;44432;49.786;22.760;2022-10-31T12:03:09;10.00;;;4.10;;
58661;SDS011;44432;49.786;22.760;2022-10-31T12:05:44;8.80;;;3.90;;
58661;SDS011;44432;49.786;22.760;2022-10-31T12:08:17;14.50;;;4.10;;
58661;SDS011;44432;49.786;22.760;2022-10-31T12:10:52;10.50;;;3.90;;
58661;SDS011;44432;49.786;22.760;2022-10-31T12:13:33;15.20;;;4.70;;
58661;SDS011;44432;49.786;22.760;2022-10-31T12:16:08;9.60;;;3.90;;
58661;SDS011;44432;49.786;22.760;2022-10-31T12:18:51;7.70;;;3.30;;
58661;SDS011;44432;49.786;22.760;2022-10-31T12:21:34;10.50;;;3.70;;
58661;SDS011;44432;49.786;22.760;2022-10-31T12:24:24;12.10;;;3.80;;
58661;SDS011;44432;49.786;22.760;2022-10-31T12:27:06;12.70;;;4.10;;
58661;SDS011;44432;49.786;22.760;2022-10-31T12:30:00;10.10;;;4.70;;
58661;SDS011;44432;49.786;22.760;2022-10-31T12:32:40;10.30;;;3.50;;
58661;SDS011;44432;49.786;22.760;2022-10-31T12:35:32;11.60;;;4.70;;
58661;SDS011;44432;49.786;22.760;2022-10-31T12:38:26;12.60;;;4.80;;
58661;SDS011;44432;49.786;22.760;2022-10-31T12:41:10;11.20;;;6.10;;
58661;SDS011;44432;49.786;22.760;2022-10-31T12:43:54;14.10;;;7.90;;
58661;SDS011;44432;49.786;22.760;2022-10-31T12:46:37;10.00;;;6.00;;
58661;SDS011;44432;49.786;22.760;2022-10-31T12:52:22;13.00;;;6.70;;
58661;SDS011;44432;49.786;22.760;2022-10-31T12:55:16;11.40;;;6.60;;
58661;SDS011;44432;49.786;22.760;2022-10-31T12:58:00;11.10;;;7.30;;
58661;SDS011;44432;49.786;22.760;2022-10-31T13:00:38;11.30;;;6.80;;
58661;SDS011;44432;49.786;22.760;2022-10-31T13:03:23;14.10;;;7.10;;
58661;SDS011;44432;49.786;22.760;2022-10-31T13:06:03;12.90;;;6.60;;
58661;SDS011;44432;49.786;22.760;2022-10-31T13:08:39;15.70;;;7.10;;
58661;SDS011;44432;49.786;22.760;2022-10-31T13:11:14;14.10;;;7.30;;
58661;SDS011;44432;49.786;22.760;2022-10-31T13:13:49;12.90;;;6.10;;
58661;SDS011;44432;49.786;22.760;2022-10-31T13:16:28;13.50;;;7.10;;
58661;SDS011;44432;49.786;22.760;2022-10-31T13:19:04;14.70;;;9.00;;
58661;SDS011;44432;49.786;22.760;2022-10-31T13:21:41;13.80;;;7.30;;
58661;SDS011;44432;49.786;22.760;2022-10-31T13:24:20;11.00;;;6.70;;
58661;SDS011;44432;49.786;22.760;2022-10-31T13:26:56;17.20;;;6.60;;
58661;SDS011;44432;49.786;22.760;2022-10-31T13:29:30;12.80;;;7.70;;
58661;SDS011;44432;49.786;22.760;2022-10-31T13:32:08;13.50;;;7.10;;
58661;SDS011;44432;49.786;22.760;2022-10-31T13:34:40;14.60;;;9.40;;
58661;SDS011;44432;49.786;22.760;2022-10-31T13:37:27;20.10;;;9.50;;
58661;SDS011;44432;49.786;22.760;2022-10-31T13:40:08;16.50;;;10.60;;
58661;SDS011;44432;49.786;22.760;2022-10-31T13:42:51;18.30;;;11.50;;
58661;SDS011;44432;49.786;22.760;2022-10-31T13:45:28;14.60;;;10.30;;
58661;SDS011;44432;49.786;22.760;2022-10-31T13:48:38;16.10;;;9.50;;
58661;SDS011;44432;49.786;22.760;2022-10-31T13:51:10;12.30;;;8.00;;
58661;SDS011;44432;49.786;22.760;2022-10-31T13:53:43;19.10;;;8.40;;
58661;SDS011;44432;49.786;22.760;2022-10-31T13:56:25;13.60;;;8.00;;
58661;SDS011;44432;49.786;22.760;2022-10-31T14:01:28;15.20;;;7.30;;
58661;SDS011;44432;49.786;22.760;2022-10-31T14:04:01;15.40;;;9.00;;
58661;SDS011;44432;49.786;22.760;2022-10-31T14:06:42;17.50;;;9.60;;
58661;SDS011;44432;49.786;22.760;2022-10-31T14:09:21;17.00;;;10.60;;
58661;SDS011;44432;49.786;22.760;2022-10-31T14:11:55;19.50;;;14.80;;
58661;SDS011;44432;49.786;22.760;2022-10-31T14:14:32;23.80;;;14.40;;
58661;SDS011;44432;49.786;22.760;2022-10-31T14:17:14;17.20;;;10.10;;
58661;SDS011;44432;49.786;22.760;2022-10-31T14:20:01;13.90;;;9.20;;
58661;SDS011;44432;49.786;22.760;2022-10-31T14:22:46;18.20;;;10.70;;
58661;SDS011;44432;49.786;22.760;2022-10-31T14:25:26;18.80;;;11.60;;
58661;SDS011;44432;49.786;22.760;2022-10-31T14:28:00;16.50;;;11.80;;
58661;SDS011;44432;49.786;22.760;2022-10-31T14:30:52;17.70;;;11.10;;
58661;SDS011;44432;49.786;22.760;2022-10-31T14:33:25;18.20;;;11.70;;
58661;SDS011;44432;49.786;22.760;2022-10-31T14:41:28;19.50;;;11.90;;
58661;SDS011;44432;49.786;22.760;2022-10-31T14:44:19;19.30;;;12.10;;
58661;SDS011;44432;49.786;22.760;2022-10-31T14:47:09;18.60;;;13.00;;
58661;SDS011;44432;49.786;22.760;2022-10-31T14:49:55;26.90;;;14.50;;
58661;SDS011;44432;49.786;22.760;2022-10-31T14:52:52;26.30;;;15.10;;
58661;SDS011;44432;49.786;22.760;2022-10-31T14:55:25;30.70;;;14.20;;
58661;SDS011;44432;49.786;22.760;2022-10-31T14:57:57;26.80;;;11.80;;
58661;SDS011;44432;49.786;22.760;2022-10-31T15:00:31;23.20;;;11.60;;
58661;SDS011;44432;49.786;22.760;2022-10-31T15:03:07;26.50;;;12.60;;
58661;SDS011;44432;49.786;22.760;2022-10-31T15:05:44;24.80;;;12.60;;
58661;SDS011;44432;49.786;22.760;2022-10-31T15:08:31;19.00;;;10.10;;
58661;SDS011;44432;49.786;22.760;2022-10-31T15:11:06;24.90;;;10.70;;
58661;SDS011;44432;49.786;22.760;2022-10-31T15:13:47;28.90;;;12.00;;
58661;SDS011;44432;49.786;22.760;2022-10-31T15:16:20;19.50;;;11.10;;
58661;SDS011;44432;49.786;22.760;2022-10-31T15:18:53;24.00;;;11.70;;
58661;SDS011;44432;49.786;22.760;2022-10-31T15:21:25;19.60;;;12.00;;
58661;SDS011;44432;49.786;22.760;2022-10-31T15:23:58;18.90;;;10.10;;
58661;SDS011;44432;49.786;22.760;2022-10-31T15:26:31;16.60;;;10.10;;
58661;SDS011;44432;49.786;22.760;2022-10-31T15:29:11;18.50;;;10.30;;
58661;SDS011;44432;49.786;22.760;2022-10-31T15:31:50;20.90;;;11.70;;
58661;SDS011;44432;49.786;22.760;2022-10-31T15:34:28;24.10;;;12.90;;
58661;SDS011;44432;49.786;22.760;2022-10-31T15:37:04;24.20;;;11.00;;